createdAt,value
2023-04-05T00:00:54.438Z,87.29
2023-04-05T00:01:51.254Z,87.96
2023-04-05T00:02:47.923Z,87.88
2023-04-05T00:03:44.678Z,87.78
2023-04-05T00:04:50.476Z,87.49
2023-04-05T00:05:50.068Z,87.79
2023-04-05T00:06:52.595Z,88.23
2023-04-05T00:07:54.489Z,88.03
2023-04-05T00:08:51.101Z,88.04
2023-04-05T00:09:47.938Z,87.90
2023-04-05T00:10:44.512Z,88.11
2023-04-05T00:11:41.084Z,88.53
2023-04-05T00:12:37.703Z,88.40
2023-04-05T00:13:34.329Z,88.49
2023-04-05T00:14:30.982Z,88.43
2023-04-05T00:15:28.205Z,88.50
2023-04-05T00:16:25.038Z,88.52
2023-04-05T00:17:22.482Z,87.30
2023-04-05T00:18:22.228Z,86.93
2023-04-05T00:19:19.681Z,86.23
2023-04-05T00:20:16.304Z,86.44
2023-04-05T00:21:15.563Z,86.87
2023-04-05T00:22:12.183Z,87.39
2023-04-05T00:23:10.510Z,87.97
2023-04-05T00:24:08.064Z,87.73
2023-04-05T00:25:05.665Z,88.13
2023-04-05T00:26:02.242Z,88.27
2023-04-05T00:26:58.783Z,86.96
2023-04-05T00:27:55.464Z,85.87
2023-04-05T00:28:52.632Z,85.78
2023-04-05T00:29:49.309Z,86.37
2023-04-05T00:30:46.023Z,86.17
2023-04-05T00:31:42.640Z,87.28
2023-04-05T00:32:39.284Z,87.88
2023-04-05T00:33:36.062Z,88.06
2023-04-05T00:34:33.858Z,88.34
2023-04-05T00:35:31.135Z,88.52
2023-04-05T00:36:27.779Z,88.54
2023-04-05T00:37:24.439Z,88.46
2023-04-05T00:38:21.186Z,88.52
2023-04-05T00:39:17.775Z,88.06
2023-04-05T00:40:14.441Z,87.48
2023-04-05T00:41:12.180Z,87.72
2023-04-05T00:42:09.234Z,87.92
2023-04-05T00:43:05.979Z,88.14
2023-04-05T00:44:03.930Z,88.30
2023-04-05T00:45:00.794Z,88.41
2023-04-05T00:45:57.681Z,88.80
2023-04-05T00:46:55.436Z,88.58
2023-04-05T00:47:52.456Z,88.31
2023-04-05T00:48:49.184Z,88.32
2023-04-05T00:49:46.392Z,88.33
2023-04-05T00:50:43.675Z,87.86
2023-04-05T00:51:40.871Z,88.25
2023-04-05T00:52:43.603Z,88.21
2023-04-05T00:53:40.959Z,88.29
2023-04-05T00:54:39.252Z,88.68
2023-04-05T00:55:36.527Z,88.47
2023-04-05T00:56:33.289Z,88.36
2023-04-05T00:57:30.367Z,88.54
2023-04-05T00:58:27.303Z,88.11
2023-04-05T00:59:24.056Z,88.40
2023-04-05T01:00:21.565Z,88.04
2023-04-05T01:01:23.871Z,88.11
2023-04-05T01:02:33.929Z,88.22
2023-04-05T01:03:32.634Z,88.22
2023-04-05T01:04:32.818Z,88.53
2023-04-05T01:05:48.257Z,87.25
2023-04-05T01:07:03.318Z,88.05
2023-04-05T01:08:09.660Z,88.52
2023-04-05T01:09:16.918Z,88.55
2023-04-05T01:10:17.420Z,87.90
2023-04-05T01:11:17.086Z,88.22
2023-04-05T01:12:18.233Z,88.53
2023-04-05T01:13:17.266Z,88.45
2023-04-05T01:14:14.443Z,88.69
2023-04-05T01:15:12.509Z,88.81
2023-04-05T01:16:10.349Z,88.55
2023-04-05T01:17:09.677Z,88.70
2023-04-05T01:18:06.411Z,87.95
2023-04-05T01:19:03.995Z,88.13
2023-04-05T01:20:09.020Z,88.60
2023-04-05T01:21:34.062Z,88.50
2023-04-05T01:22:54.110Z,88.49
2023-04-05T01:24:09.994Z,88.86
2023-04-05T01:25:14.716Z,89.11
2023-04-05T01:26:30.790Z,88.49
2023-04-05T01:27:58.029Z,89.09
2023-04-05T01:29:25.837Z,89.37
2023-04-05T01:30:26.691Z,89.53
2023-04-05T01:31:35.091Z,89.23
2023-04-05T01:32:40.452Z,87.77
2023-04-05T01:33:48.806Z,88.31
2023-04-05T01:34:52.530Z,87.82
2023-04-05T01:35:59.447Z,88.32
2023-04-05T01:37:06.014Z,87.81
2023-04-05T01:38:05.513Z,88.31
2023-04-05T01:39:05.112Z,88.41
2023-04-05T01:40:02.579Z,88.37
2023-04-05T01:40:59.789Z,88.03
2023-04-05T01:42:01.316Z,88.00
2023-04-05T01:42:58.030Z,88.02
2023-04-05T01:43:54.867Z,87.97
2023-04-05T01:44:55.489Z,87.90
2023-04-05T01:45:52.256Z,88.28
2023-04-05T01:46:48.997Z,87.94
2023-04-05T01:47:45.876Z,87.67
2023-04-05T01:48:42.461Z,87.59
2023-04-05T01:49:39.128Z,86.48
2023-04-05T01:50:35.954Z,86.81
2023-04-05T01:51:33.415Z,87.23
2023-04-05T01:52:30.131Z,87.10
2023-04-05T01:53:26.752Z,86.80
2023-04-05T01:54:23.440Z,87.43
2023-04-05T01:55:20.096Z,87.87
2023-04-05T01:56:16.892Z,87.37
2023-04-05T01:57:13.723Z,87.68
2023-04-05T01:58:10.618Z,87.45
2023-04-05T01:59:07.469Z,86.60
2023-04-05T02:00:04.748Z,87.14
2023-04-05T02:01:01.456Z,87.02
2023-04-05T02:01:58.297Z,87.33
2023-04-05T02:02:55.060Z,86.74
2023-04-05T02:03:51.807Z,87.28
2023-04-05T02:04:48.546Z,87.63
2023-04-05T02:05:45.345Z,88.03
2023-04-05T02:06:42.398Z,88.07
2023-04-05T02:07:39.136Z,87.94
2023-04-05T02:08:35.850Z,87.48
2023-04-05T02:09:32.384Z,87.75
2023-04-05T02:10:28.978Z,87.77
2023-04-05T02:11:25.548Z,87.70
2023-04-05T02:12:22.819Z,88.05
2023-04-05T02:13:22.385Z,87.71
2023-04-05T02:14:19.084Z,87.40
2023-04-05T02:15:16.594Z,87.95
2023-04-05T02:16:13.378Z,87.66
2023-04-05T02:17:10.043Z,86.96
2023-04-05T02:18:08.100Z,86.81
2023-04-05T02:19:06.059Z,87.43
2023-04-05T02:20:04.608Z,87.74
2023-04-05T02:21:03.182Z,87.71
2023-04-05T02:21:59.793Z,87.80
2023-04-05T02:22:56.920Z,86.84
2023-04-05T02:23:54.035Z,87.29
2023-04-05T02:24:50.629Z,87.33
2023-04-05T02:25:48.353Z,87.23
2023-04-05T02:26:44.975Z,87.26
2023-04-05T02:27:41.603Z,87.31
2023-04-05T02:28:38.306Z,87.44
2023-04-05T02:29:35.002Z,87.73
2023-04-05T02:30:31.885Z,88.04
2023-04-05T02:31:28.585Z,87.76
2023-04-05T02:32:25.677Z,87.42
2023-04-05T02:33:25.229Z,87.75
2023-04-05T02:34:23.029Z,87.70
2023-04-05T02:35:21.357Z,87.21
2023-04-05T02:36:18.578Z,86.65
2023-04-05T02:37:15.337Z,87.00
2023-04-05T02:38:11.990Z,87.74
2023-04-05T02:39:08.591Z,88.04
2023-04-05T02:40:09.798Z,88.22
2023-04-05T02:41:11.744Z,88.21
2023-04-05T02:42:08.559Z,88.44
2023-04-05T02:43:05.190Z,88.40
2023-04-05T02:44:01.910Z,88.54
2023-04-05T02:44:58.584Z,88.01
2023-04-05T02:45:55.522Z,87.73
2023-04-05T02:46:52.215Z,87.94
2023-04-05T02:47:48.938Z,88.28
2023-04-05T02:48:45.902Z,87.90
2023-04-05T02:49:42.526Z,88.58
2023-04-05T02:50:39.405Z,88.84
2023-04-05T02:51:36.365Z,88.66
2023-04-05T02:52:34.317Z,88.77
2023-04-05T02:53:31.152Z,88.53
2023-04-05T02:54:27.837Z,88.58
2023-04-05T02:55:24.830Z,88.87
2023-04-05T02:56:22.144Z,88.35
2023-04-05T02:57:18.763Z,88.37
2023-04-05T02:58:15.992Z,87.90
2023-04-05T02:59:13.684Z,87.84
2023-04-05T03:00:12.124Z,87.68
2023-04-05T03:01:08.935Z,87.25
2023-04-05T03:02:06.701Z,87.32
2023-04-05T03:03:03.432Z,86.99
2023-04-05T03:04:00.393Z,86.13
2023-04-05T03:04:57.223Z,86.42
2023-04-05T03:06:10.222Z,86.69
2023-04-05T03:07:08.016Z,86.87
2023-04-05T03:08:04.819Z,87.79
2023-04-05T03:09:02.200Z,87.19
2023-04-05T03:09:59.562Z,87.13
2023-04-05T03:10:56.136Z,87.45
2023-04-05T03:11:52.768Z,87.63
2023-04-05T03:12:51.488Z,87.61
2023-04-05T03:13:48.017Z,87.06
2023-04-05T03:14:46.084Z,87.60
2023-04-05T03:15:42.933Z,87.99
2023-04-05T03:16:40.127Z,88.33
2023-04-05T03:17:37.495Z,88.96
2023-04-05T03:18:34.167Z,88.72
2023-04-05T03:19:30.758Z,88.08
2023-04-05T03:20:27.413Z,88.34
2023-04-05T03:21:24.282Z,88.01
2023-04-05T03:22:21.894Z,88.61
2023-04-05T03:23:18.694Z,88.85
2023-04-05T03:24:16.168Z,89.06
2023-04-05T03:25:12.762Z,89.08
2023-04-05T03:26:10.420Z,89.06
2023-04-05T03:27:07.277Z,88.96
2023-04-05T03:28:05.742Z,89.27
2023-04-05T03:29:02.359Z,89.04
2023-04-05T03:29:59.186Z,88.98
2023-04-05T03:30:56.040Z,89.00
2023-04-05T03:31:52.787Z,88.91
2023-04-05T03:32:49.517Z,89.36
2023-04-05T03:33:46.171Z,88.75
2023-04-05T03:34:42.765Z,88.28
2023-04-05T03:35:39.705Z,88.50
2023-04-05T03:36:42.921Z,88.96
2023-04-05T03:37:39.581Z,88.64
2023-04-05T03:38:36.241Z,88.32
2023-04-05T03:39:32.860Z,88.19
2023-04-05T03:40:29.430Z,88.90
2023-04-05T03:41:26.085Z,88.94
2023-04-05T03:42:22.694Z,88.95
2023-04-05T03:43:19.357Z,89.70
2023-04-05T03:44:15.934Z,89.26
2023-04-05T03:45:12.620Z,88.68
2023-04-05T03:46:09.352Z,88.73
2023-04-05T03:47:06.163Z,88.52
2023-04-05T03:48:03.371Z,89.01
2023-04-05T03:49:01.185Z,87.92
2023-04-05T03:49:57.758Z,88.59
2023-04-05T03:50:54.382Z,88.88
2023-04-05T03:51:51.010Z,88.44
2023-04-05T03:52:47.745Z,88.64
2023-04-05T03:53:44.948Z,88.36
2023-04-05T03:54:41.802Z,88.97
2023-04-05T03:55:38.707Z,88.55
2023-04-05T03:56:35.530Z,88.89
2023-04-05T03:57:32.247Z,89.09
2023-04-05T03:58:28.938Z,88.17
2023-04-05T03:59:26.088Z,87.96
2023-04-05T04:00:23.924Z,88.21
2023-04-05T04:01:20.869Z,88.84
2023-04-05T04:02:17.639Z,88.99
2023-04-05T04:03:15.206Z,88.45
2023-04-05T04:04:13.690Z,88.66
2023-04-05T04:05:11.965Z,88.25
2023-04-05T04:06:08.760Z,88.60
2023-04-05T04:07:05.916Z,89.26
2023-04-05T04:08:02.544Z,89.38
2023-04-05T04:08:59.240Z,90.12
2023-04-05T04:09:56.582Z,89.57
2023-04-05T04:10:53.208Z,89.22
2023-04-05T04:11:49.821Z,89.02
2023-04-05T04:12:46.442Z,88.54
2023-04-05T04:13:43.017Z,88.16
2023-04-05T04:14:39.613Z,88.21
2023-04-05T04:15:36.233Z,87.53
2023-04-05T04:16:32.886Z,87.71
2023-04-05T04:17:31.370Z,87.22
2023-04-05T04:18:27.946Z,87.65
2023-04-05T04:19:24.520Z,87.86
2023-04-05T04:20:21.432Z,87.12
2023-04-05T04:21:19.202Z,87.14
2023-04-05T04:22:20.633Z,87.26
2023-04-05T04:23:19.442Z,87.49
2023-04-05T04:24:18.917Z,86.89
2023-04-05T04:25:18.796Z,87.17
2023-04-05T04:26:15.502Z,87.29
2023-04-05T04:27:12.106Z,87.79
2023-04-05T04:28:09.529Z,87.66
2023-04-05T04:29:06.887Z,87.05
2023-04-05T04:30:04.497Z,87.41
2023-04-05T04:31:05.161Z,87.34
2023-04-05T04:32:01.888Z,87.27
2023-04-05T04:32:59.950Z,87.67
2023-04-05T04:33:56.585Z,87.15
2023-04-05T04:34:56.023Z,87.82
2023-04-05T04:35:54.897Z,87.83
2023-04-05T04:37:00.874Z,88.20
2023-04-05T04:38:02.558Z,88.23
2023-04-05T04:38:59.325Z,88.18
2023-04-05T04:39:56.153Z,87.59
2023-04-05T04:40:53.957Z,87.42
2023-04-05T04:41:50.649Z,88.05
2023-04-05T04:42:47.355Z,88.32
2023-04-05T04:43:44.747Z,88.70
2023-04-05T04:44:42.786Z,88.23
2023-04-05T04:45:39.690Z,87.79
2023-04-05T04:46:43.165Z,88.36
2023-04-05T04:47:39.811Z,88.17
2023-04-05T04:48:38.007Z,88.19
2023-04-05T04:49:34.636Z,88.10
2023-04-05T04:50:34.523Z,88.04
2023-04-05T04:51:31.885Z,87.88
2023-04-05T04:52:28.472Z,88.38
2023-04-05T04:53:25.073Z,88.30
2023-04-05T04:54:22.178Z,88.16
2023-04-05T04:55:25.305Z,88.47
2023-04-05T04:56:22.028Z,87.75
2023-04-05T04:57:18.689Z,88.32
2023-04-05T04:58:15.846Z,88.16
2023-04-05T04:59:12.494Z,88.32
2023-04-05T05:00:15.777Z,89.07
2023-04-05T05:01:12.414Z,89.46
2023-04-05T05:02:09.181Z,88.54
2023-04-05T05:03:06.301Z,88.18
2023-04-05T05:04:04.085Z,87.72
2023-04-05T05:05:00.768Z,86.95
2023-04-05T05:05:57.328Z,87.04
2023-04-05T05:06:54.188Z,87.65
2023-04-05T05:07:52.902Z,87.82
2023-04-05T05:08:49.571Z,87.26
2023-04-05T05:09:46.227Z,87.93
2023-04-05T05:10:43.352Z,87.97
2023-04-05T05:11:40.372Z,88.23
2023-04-05T05:12:38.341Z,88.38
2023-04-05T05:13:35.053Z,88.05
2023-04-05T05:14:31.671Z,88.39
2023-04-05T05:15:28.270Z,88.14
2023-04-05T05:16:24.934Z,88.01
2023-04-05T05:17:21.871Z,88.19
2023-04-05T05:18:18.786Z,88.06
2023-04-05T05:19:15.526Z,88.90
2023-04-05T05:20:12.749Z,88.09
2023-04-05T05:21:09.499Z,87.89
2023-04-05T05:22:06.035Z,87.84
2023-04-05T05:23:04.032Z,87.12
2023-04-05T05:24:00.752Z,86.14
2023-04-05T05:24:57.330Z,86.75
2023-04-05T05:26:00.443Z,86.04
2023-04-05T05:26:57.008Z,86.50
2023-04-05T05:27:53.676Z,86.56
2023-04-05T05:28:50.330Z,86.13
2023-04-05T05:29:47.426Z,85.73
2023-04-05T05:30:45.110Z,86.24
2023-04-05T05:31:41.978Z,86.41
2023-04-05T05:32:39.690Z,86.59
2023-04-05T05:33:37.847Z,86.02
2023-04-05T05:34:34.747Z,85.56
2023-04-05T05:35:31.391Z,85.58
2023-04-05T05:36:28.123Z,85.50
2023-04-05T05:37:32.125Z,84.55
2023-04-05T05:38:28.736Z,84.04
2023-04-05T05:39:25.589Z,84.16
2023-04-05T05:40:22.169Z,84.31
2023-04-05T05:41:18.806Z,83.44
2023-04-05T05:42:15.403Z,83.53
2023-04-05T05:43:11.976Z,83.09
2023-04-05T05:44:08.542Z,83.45
2023-04-05T05:45:06.462Z,82.82
2023-04-05T05:46:03.196Z,82.42
2023-04-05T05:46:59.801Z,83.51
2023-04-05T05:47:56.962Z,83.70
2023-04-05T05:48:53.703Z,84.38
2023-04-05T05:49:50.440Z,84.20
2023-04-05T05:50:49.348Z,83.62
2023-04-05T05:51:46.540Z,83.72
2023-04-05T05:52:43.134Z,84.43
2023-04-05T05:53:40.253Z,84.35
2023-04-05T05:54:36.908Z,84.77
2023-04-05T05:55:33.714Z,84.15
2023-04-05T05:56:30.841Z,84.45
2023-04-05T05:57:27.422Z,84.42
2023-04-05T05:58:24.078Z,84.59
2023-04-05T05:59:20.906Z,84.84
2023-04-05T06:00:18.344Z,84.91
2023-04-05T06:01:14.931Z,84.37
2023-04-05T06:02:11.536Z,84.39
2023-04-05T06:03:08.275Z,84.94
2023-04-05T06:04:05.141Z,85.22
2023-04-05T06:05:02.856Z,84.74
2023-04-05T06:06:00.203Z,83.73
2023-04-05T06:06:57.989Z,83.63
2023-04-05T06:07:54.636Z,84.47
2023-04-05T06:08:51.506Z,84.14
2023-04-05T06:09:48.519Z,83.64
2023-04-05T06:10:45.127Z,84.03
2023-04-05T06:11:53.282Z,84.32
2023-04-05T06:12:52.875Z,84.26
2023-04-05T06:13:52.487Z,84.28
2023-04-05T06:14:49.344Z,84.56
2023-04-05T06:15:47.959Z,84.07
2023-04-05T06:16:44.565Z,83.70
2023-04-05T06:17:42.732Z,84.08
2023-04-05T06:18:39.454Z,83.43
2023-04-05T06:19:36.024Z,83.90
2023-04-05T06:20:32.609Z,84.48
2023-04-05T06:21:29.125Z,84.01
2023-04-05T06:22:25.846Z,84.11
2023-04-05T06:23:22.408Z,84.60
2023-04-05T06:24:19.132Z,84.53
2023-04-05T06:25:17.068Z,83.63
2023-04-05T06:26:20.682Z,83.51
2023-04-05T06:27:17.151Z,83.12
2023-04-05T06:28:13.708Z,82.03
2023-04-05T06:29:10.265Z,82.21
2023-04-05T06:30:07.690Z,81.97
2023-04-05T06:31:04.448Z,81.35
2023-04-05T06:32:01.619Z,80.98
2023-04-05T06:32:58.361Z,80.47
2023-04-05T06:33:55.084Z,80.77
2023-04-05T06:34:51.748Z,81.02
2023-04-05T06:35:48.511Z,80.33
2023-04-05T06:36:46.710Z,80.44
2023-04-05T06:37:43.382Z,79.84
2023-04-05T06:38:39.981Z,79.48
2023-04-05T06:39:37.049Z,79.70
2023-04-05T06:40:33.647Z,80.35
2023-04-05T06:41:30.710Z,79.33
2023-04-05T06:42:28.120Z,78.57
2023-04-05T06:43:24.944Z,78.21
2023-04-05T06:44:21.548Z,77.98
2023-04-05T06:45:19.830Z,77.83
2023-04-05T06:46:16.598Z,78.48
2023-04-05T06:47:13.692Z,78.50
2023-04-05T06:48:11.011Z,78.12
2023-04-05T06:49:07.630Z,77.27
2023-04-05T06:50:06.151Z,77.06
2023-04-05T06:51:03.773Z,78.45
2023-04-05T06:52:00.371Z,77.03
2023-04-05T06:52:57.238Z,76.72
2023-04-05T06:53:53.815Z,76.19
2023-04-05T06:54:50.367Z,76.92
2023-04-05T06:55:53.388Z,77.35
2023-04-05T06:56:49.975Z,76.44
2023-04-05T06:57:46.625Z,76.62
2023-04-05T06:58:44.165Z,75.76
2023-04-05T06:59:40.866Z,76.33
2023-04-05T07:00:37.532Z,76.09
2023-04-05T07:01:34.190Z,77.20
2023-04-05T07:02:30.960Z,76.24
2023-04-05T07:03:27.876Z,76.63
2023-04-05T07:04:24.690Z,74.63
2023-04-05T07:05:21.532Z,75.67
2023-04-05T07:06:18.357Z,75.59
2023-04-05T07:07:15.120Z,75.82
2023-04-05T07:08:11.702Z,75.77
2023-04-05T07:09:08.434Z,75.41
2023-04-05T07:10:05.904Z,75.60
2023-04-05T07:11:02.548Z,75.95
2023-04-05T07:12:00.224Z,75.28
2023-04-05T07:12:56.843Z,75.45
2023-04-05T07:13:53.424Z,75.33
2023-04-05T07:14:50.306Z,73.84
2023-04-05T07:15:47.249Z,73.09
2023-04-05T07:16:43.871Z,73.69
2023-04-05T07:17:40.586Z,74.06
2023-04-05T07:18:37.218Z,73.98
2023-04-05T07:19:34.114Z,73.05
2023-04-05T07:20:30.808Z,73.13
2023-04-05T07:21:27.440Z,74.40
2023-04-05T07:22:24.141Z,71.62
2023-04-05T07:23:23.052Z,72.80
2023-04-05T07:24:19.861Z,71.87
2023-04-05T07:25:16.544Z,73.35
2023-04-05T07:26:13.453Z,73.40
2023-04-05T07:27:10.113Z,72.80
2023-04-05T07:28:06.730Z,72.69
2023-04-05T07:29:08.409Z,71.88
2023-04-05T07:30:07.109Z,71.75
2023-04-05T07:31:05.862Z,72.64
2023-04-05T07:32:03.271Z,74.08
2023-04-05T07:33:00.199Z,73.42
2023-04-05T07:33:58.220Z,72.49
2023-04-05T07:34:54.840Z,72.59
2023-04-05T07:35:55.623Z,72.89
2023-04-05T07:36:52.186Z,74.63
2023-04-05T07:37:48.775Z,75.60
2023-04-05T07:38:45.505Z,74.45
2023-04-05T07:39:42.045Z,74.63
2023-04-05T07:40:38.789Z,74.64
2023-04-05T07:41:35.622Z,73.34
2023-04-05T07:42:33.641Z,73.55
2023-04-05T07:43:30.512Z,74.16
2023-04-05T07:44:27.105Z,73.46
2023-04-05T07:45:23.870Z,72.27
2023-04-05T07:46:20.820Z,72.55
2023-04-05T07:47:17.520Z,73.34
2023-04-05T07:48:14.131Z,73.10
2023-04-05T07:49:11.708Z,72.85
2023-04-05T07:50:10.784Z,72.32
2023-04-05T07:51:09.994Z,72.19
2023-04-05T07:52:06.628Z,72.18
2023-04-05T07:53:03.324Z,71.89
2023-04-05T07:54:03.103Z,70.56
2023-04-05T07:55:00.170Z,72.95
2023-04-05T07:55:57.808Z,72.87
2023-04-05T07:56:55.866Z,73.20
2023-04-05T07:57:52.454Z,73.54
2023-04-05T07:58:50.580Z,72.87
2023-04-05T07:59:51.029Z,71.74
2023-04-05T08:00:47.647Z,70.20
2023-04-05T08:01:44.308Z,71.20
2023-04-05T08:02:41.460Z,70.97
2023-04-05T08:03:40.342Z,70.23
2023-04-05T08:04:37.262Z,70.85
2023-04-05T08:05:33.963Z,70.14
2023-04-05T08:06:31.240Z,69.49
2023-04-05T08:07:27.848Z,71.67
2023-04-05T08:08:25.441Z,72.20
2023-04-05T08:09:22.057Z,72.19
2023-04-05T08:10:18.675Z,72.41
2023-04-05T08:11:15.637Z,72.88
2023-04-05T08:12:12.265Z,72.41
2023-04-05T08:13:08.954Z,71.81
2023-04-05T08:14:05.839Z,72.14
2023-04-05T08:15:02.463Z,70.77
2023-04-05T08:15:59.446Z,71.08
2023-04-05T08:16:56.103Z,71.21
2023-04-05T08:17:52.802Z,71.38
2023-04-05T08:18:49.564Z,70.75
2023-04-05T08:19:46.156Z,70.58
2023-04-05T08:20:43.056Z,72.48
2023-04-05T08:21:39.877Z,71.32
2023-04-05T08:22:36.496Z,72.49
2023-04-05T08:23:33.264Z,71.51
2023-04-05T08:24:30.142Z,72.14
2023-04-05T08:25:26.814Z,71.63
2023-04-05T08:26:23.578Z,71.70
2023-04-05T08:27:20.391Z,72.21
2023-04-05T08:28:17.325Z,72.45
2023-04-05T08:29:13.913Z,72.79
2023-04-05T08:30:10.989Z,71.74
2023-04-05T08:31:07.797Z,72.73
2023-04-05T08:32:04.974Z,69.83
2023-04-05T08:33:01.614Z,72.44
2023-04-05T08:33:58.175Z,72.67
2023-04-05T08:34:54.850Z,72.58
2023-04-05T08:35:51.630Z,72.73
2023-04-05T08:36:48.915Z,73.37
2023-04-05T08:37:47.565Z,73.30
2023-04-05T08:38:44.182Z,74.27
2023-04-05T08:39:40.765Z,73.15
2023-04-05T08:40:42.705Z,72.23
2023-04-05T08:41:46.965Z,72.30
2023-04-05T08:42:52.502Z,72.64
2023-04-05T08:44:00.213Z,72.09
2023-04-05T08:44:59.884Z,72.23
2023-04-05T08:46:00.008Z,71.98
2023-04-05T08:46:58.935Z,72.49
2023-04-05T08:47:55.761Z,72.88
2023-04-05T08:48:53.153Z,72.27
2023-04-05T08:49:49.904Z,72.07
2023-04-05T08:50:53.783Z,71.63
2023-04-05T08:51:50.535Z,71.16
2023-04-05T08:52:50.620Z,73.01
2023-04-05T08:53:48.371Z,73.07
2023-04-05T08:54:45.048Z,71.80
2023-04-05T08:55:42.123Z,72.40
2023-04-05T08:56:39.137Z,73.14
2023-04-05T08:57:40.061Z,72.69
2023-04-05T08:58:38.728Z,71.44
2023-04-05T08:59:39.220Z,71.90
2023-04-05T09:00:36.153Z,73.37
2023-04-05T09:01:36.565Z,72.45
2023-04-05T09:02:34.125Z,72.38
2023-04-05T09:03:40.205Z,69.31
2023-04-05T09:04:40.391Z,71.63
2023-04-05T09:05:39.707Z,73.22
2023-04-05T09:06:36.710Z,71.43
2023-04-05T09:07:33.540Z,72.92
2023-04-05T09:08:30.499Z,71.48
2023-04-05T09:09:32.697Z,72.08
2023-04-05T09:10:32.005Z,71.22
2023-04-05T09:11:28.743Z,71.99
2023-04-05T09:12:26.752Z,72.32
2023-04-05T09:13:23.331Z,71.86
2023-04-05T09:14:21.318Z,71.91
2023-04-05T09:15:18.404Z,71.42
2023-04-05T09:16:16.849Z,71.23
2023-04-05T09:17:15.498Z,70.48
2023-04-05T09:18:25.546Z,70.04
2023-04-05T09:19:24.099Z,71.40
2023-04-05T09:20:20.775Z,70.94
2023-04-05T09:21:17.790Z,71.05
2023-04-05T09:22:18.481Z,71.40
2023-04-05T09:23:15.151Z,69.72
2023-04-05T09:24:11.739Z,69.57
2023-04-05T09:25:08.626Z,68.95
2023-04-05T09:26:21.793Z,69.36
2023-04-05T09:27:20.535Z,68.85
2023-04-05T09:28:17.119Z,69.51
2023-04-05T09:29:29.576Z,69.16
2023-04-05T09:30:28.117Z,69.06
2023-04-05T09:31:36.231Z,68.29
2023-04-05T09:32:33.613Z,69.37
2023-04-05T09:33:30.852Z,69.55
2023-04-05T09:34:27.500Z,68.75
2023-04-05T09:35:28.991Z,70.00
2023-04-05T09:36:25.958Z,70.29
2023-04-05T09:37:22.853Z,69.98
2023-04-05T09:38:19.687Z,68.68
2023-04-05T09:39:21.673Z,69.82
2023-04-05T09:40:18.305Z,69.54
2023-04-05T09:41:14.939Z,69.19
2023-04-05T09:42:16.058Z,70.07
2023-04-05T09:43:13.837Z,68.97
2023-04-05T09:44:10.438Z,69.25
2023-04-05T09:45:07.586Z,68.94
2023-04-05T09:46:04.280Z,67.58
2023-04-05T09:47:16.055Z,67.05
2023-04-05T09:48:13.751Z,67.25
2023-04-05T09:49:10.478Z,67.91
2023-04-05T09:50:16.243Z,67.57
2023-04-05T09:51:16.862Z,67.63
2023-04-05T09:52:32.226Z,67.46
2023-04-05T09:53:29.683Z,66.97
2023-04-05T09:54:26.452Z,67.21
2023-04-05T09:55:28.478Z,66.54
2023-04-05T09:56:25.425Z,66.65
2023-04-05T09:57:24.106Z,67.26
2023-04-05T09:58:21.790Z,66.56
2023-04-05T09:59:18.479Z,66.42
2023-04-05T10:00:19.745Z,66.58
2023-04-05T10:01:17.477Z,65.89
2023-04-05T10:02:15.658Z,66.56
2023-04-05T10:03:12.551Z,65.02
2023-04-05T10:04:09.613Z,65.18
2023-04-05T10:05:13.885Z,64.05
2023-04-05T10:06:10.779Z,63.25
2023-04-05T10:07:09.574Z,63.67
2023-04-05T10:08:07.352Z,62.38
2023-04-05T10:09:05.257Z,59.78
2023-04-05T10:10:02.078Z,61.72
2023-04-05T10:10:59.806Z,60.55
2023-04-05T10:11:57.175Z,62.04
2023-04-05T10:12:54.425Z,60.75
2023-04-05T10:13:51.763Z,63.22
2023-04-05T10:14:48.482Z,62.22
2023-04-05T10:15:49.196Z,63.08
2023-04-05T10:17:12.077Z,62.83
2023-04-05T10:18:16.204Z,61.97
2023-04-05T10:19:21.076Z,63.08
2023-04-05T10:20:22.405Z,63.23
2023-04-05T10:21:30.144Z,64.07
2023-04-05T10:22:52.873Z,61.75
2023-04-05T10:24:05.968Z,60.36
2023-04-05T10:25:08.332Z,60.98
2023-04-05T10:26:21.842Z,61.51
2023-04-05T10:27:28.179Z,61.36
2023-04-05T10:28:38.022Z,60.78
2023-04-05T10:30:06.013Z,58.88
2023-04-05T10:31:37.858Z,59.77
2023-04-05T10:32:46.066Z,59.52
2023-04-05T10:33:48.022Z,58.81
2023-04-05T10:35:09.459Z,61.02
2023-04-05T10:36:09.891Z,59.00
2023-04-05T10:37:07.448Z,59.46
2023-04-05T10:38:22.414Z,60.34
2023-04-05T10:39:30.444Z,60.59
2023-04-05T10:40:31.126Z,59.87
2023-04-05T10:41:34.158Z,60.42
2023-04-05T10:42:51.213Z,60.51
2023-04-05T10:43:51.936Z,60.24
2023-04-05T10:44:53.443Z,60.59
2023-04-05T10:45:53.932Z,60.16
2023-04-05T10:46:53.518Z,60.05
2023-04-05T10:47:55.948Z,60.56
2023-04-05T10:49:07.741Z,61.79
2023-04-05T10:50:09.407Z,64.37
2023-04-05T10:51:06.387Z,63.01
2023-04-05T10:52:04.071Z,61.48
2023-04-05T10:53:01.275Z,61.17
2023-04-05T10:53:58.815Z,60.79
2023-04-05T10:54:57.384Z,63.45
2023-04-05T10:55:56.053Z,64.04
2023-04-05T10:56:53.415Z,62.95
2023-04-05T10:57:50.793Z,61.03
2023-04-05T10:58:49.325Z,62.57
2023-04-05T10:59:47.000Z,62.90
2023-04-05T11:00:44.939Z,58.41
2023-04-05T11:01:42.950Z,60.60
2023-04-05T11:02:39.855Z,59.01
2023-04-05T11:03:46.287Z,60.59
2023-04-05T11:04:43.195Z,61.44
2023-04-05T11:05:40.413Z,59.66
2023-04-05T11:06:36.998Z,59.63
2023-04-05T11:07:44.785Z,59.67
2023-04-05T11:08:43.633Z,58.92
2023-04-05T11:09:57.190Z,59.66
2023-04-05T11:10:54.149Z,58.67
2023-04-05T11:11:52.592Z,58.78
2023-04-05T11:12:49.363Z,56.79
2023-04-05T11:13:57.316Z,59.93
2023-04-05T11:15:25.838Z,59.07
2023-04-05T11:16:23.956Z,59.07
2023-04-05T11:17:28.737Z,59.86
2023-04-05T11:18:25.895Z,60.91
2023-04-05T11:19:46.479Z,59.00
2023-04-05T11:21:06.531Z,57.78
2023-04-05T11:22:03.518Z,58.90
2023-04-05T11:23:00.285Z,57.87
2023-04-05T11:24:03.896Z,59.03
2023-04-05T11:25:03.295Z,59.95
2023-04-05T11:26:06.888Z,58.12
2023-04-05T11:27:09.889Z,56.63
2023-04-05T11:28:06.660Z,58.95
2023-04-05T11:29:03.292Z,59.97
2023-04-05T11:30:04.477Z,58.83
2023-04-05T11:31:20.025Z,57.68
2023-04-05T11:32:17.077Z,59.25
2023-04-05T11:33:36.718Z,57.98
2023-04-05T11:34:36.469Z,57.95
2023-04-05T11:35:35.090Z,59.83
2023-04-05T11:36:38.485Z,60.06
2023-04-05T11:37:55.363Z,60.30
2023-04-05T11:39:23.704Z,58.91
2023-04-05T11:40:33.680Z,59.45
2023-04-05T11:41:33.698Z,60.53
2023-04-05T11:42:30.707Z,60.46
2023-04-05T11:43:31.174Z,59.41
2023-04-05T11:44:48.756Z,60.65
2023-04-05T11:45:47.144Z,59.90
2023-04-05T11:46:43.866Z,58.47
2023-04-05T11:47:41.893Z,58.27
2023-04-05T11:48:40.634Z,59.29
2023-04-05T11:49:39.118Z,58.06
2023-04-05T11:50:42.143Z,59.31
2023-04-05T11:51:42.762Z,57.85
2023-04-05T11:52:39.392Z,60.28
2023-04-05T11:53:37.270Z,58.77
2023-04-05T11:54:34.395Z,60.01
2023-04-05T11:55:31.062Z,59.81
2023-04-05T11:56:27.689Z,60.61
2023-04-05T11:57:25.096Z,60.23
2023-04-05T11:58:25.887Z,60.50
2023-04-05T11:59:29.560Z,60.27
2023-04-05T12:00:26.522Z,60.86
2023-04-05T12:01:23.164Z,57.95
2023-04-05T12:02:21.371Z,59.47
2023-04-05T12:03:18.108Z,60.45
2023-04-05T12:04:14.747Z,60.68
2023-04-05T12:05:11.462Z,62.02
2023-04-05T12:06:08.295Z,60.06
2023-04-05T12:07:18.858Z,61.17
2023-04-05T12:08:16.114Z,60.76
2023-04-05T12:09:12.794Z,60.03
2023-04-05T12:10:13.895Z,61.67
2023-04-05T12:11:12.691Z,60.26
2023-04-05T12:12:17.063Z,60.89
2023-04-05T12:13:13.714Z,62.49
2023-04-05T12:14:10.446Z,61.77
2023-04-05T12:15:10.880Z,62.19
2023-04-05T12:16:11.971Z,62.65
2023-04-05T12:17:08.579Z,61.19
2023-04-05T12:18:05.425Z,62.41
2023-04-05T12:19:02.095Z,62.22
2023-04-05T12:19:58.834Z,62.06
2023-04-05T12:20:55.993Z,60.37
2023-04-05T12:21:53.210Z,61.97
2023-04-05T12:22:51.927Z,62.08
2023-04-05T12:23:49.581Z,61.91
2023-04-05T12:24:46.291Z,61.85
2023-04-05T12:25:46.851Z,61.99
2023-04-05T12:26:43.906Z,60.25
2023-04-05T12:27:41.220Z,61.42
2023-04-05T12:28:53.517Z,61.06
2023-04-05T12:30:18.164Z,61.47
2023-04-05T12:31:14.774Z,60.64
2023-04-05T12:32:11.475Z,60.76
2023-04-05T12:33:13.796Z,60.70
2023-04-05T12:34:12.323Z,59.73
2023-04-05T12:35:32.669Z,61.33
2023-04-05T12:36:33.785Z,60.48
2023-04-05T12:37:30.454Z,60.56
2023-04-05T12:38:27.806Z,60.86
2023-04-05T12:39:29.400Z,60.32
2023-04-05T12:40:26.180Z,61.92